Glen Saint Mary, Florida
Current Conditions -  °F | °C
As of 7:50 AM on Thursday 18 Dec 2014 (Local Time) from KVQQ Reporting Station
Clear Clear  
Wind Chill: 39°   Ceiling: Unl
Heat Index: 39°   Visibility: 7mi
Dew Point: 39°   Wind: 0mph
Humidity: 100%   Direction: NA
Pressure: 30.18"   Gusts: NA
Location:  30.28°N, 82.16°W
Report Text: KVQQ 181250Z 00000KT 7SM CLR 04/04 A3018
Loading
Personal Weather Stations






























Interactive Weather Map New forecast layout! Learn more

10-Day Weather Forecast

Advertisements
Track Severe Weather on mobile